sensor_id;sensor_type;location;lat;lon;timestamp;P1;durP1;ratioP1;P2;durP2;ratioP2
10013;SDS011;45684;48.358;10.746;2022-11-20T00:01:03;5.90;;;5.30;;
10013;SDS011;45684;48.358;10.746;2022-11-20T00:03:32;5.30;;;4.80;;
10013;SDS011;45684;48.358;10.746;2022-11-20T00:06:00;4.87;;;4.47;;
10013;SDS011;45684;48.358;10.746;2022-11-20T00:08:28;5.40;;;4.90;;
10013;SDS011;45684;48.358;10.746;2022-11-20T00:10:55;5.67;;;5.17;;
10013;SDS011;45684;48.358;10.746;2022-11-20T00:13:24;5.93;;;4.70;;
10013;SDS011;45684;48.358;10.746;2022-11-20T00:15:56;4.70;;;4.27;;
10013;SDS011;45684;48.358;10.746;2022-11-20T00:18:24;5.40;;;4.90;;
10013;SDS011;45684;48.358;10.746;2022-11-20T00:20:52;5.13;;;4.47;;
10013;SDS011;45684;48.358;10.746;2022-11-20T00:23:20;5.57;;;4.40;;
10013;SDS011;45684;48.358;10.746;2022-11-20T00:25:48;4.80;;;4.40;;
10013;SDS011;45684;48.358;10.746;2022-11-20T00:28:15;4.67;;;4.27;;
10013;SDS011;45684;48.358;10.746;2022-11-20T00:30:44;4.57;;;4.17;;
10013;SDS011;45684;48.358;10.746;2022-11-20T00:33:12;5.03;;;4.50;;
10013;SDS011;45684;48.358;10.746;2022-11-20T00:35:40;4.63;;;4.23;;
10013;SDS011;45684;48.358;10.746;2022-11-20T00:38:08;4.40;;;4.00;;
10013;SDS011;45684;48.358;10.746;2022-11-20T00:40:35;4.50;;;4.10;;
10013;SDS011;45684;48.358;10.746;2022-11-20T00:43:03;4.33;;;3.93;;
10013;SDS011;45684;48.358;10.746;2022-11-20T00:45:31;5.77;;;4.80;;
10013;SDS011;45684;48.358;10.746;2022-11-20T00:48:00;4.53;;;4.23;;
10013;SDS011;45684;48.358;10.746;2022-11-20T00:50:28;4.73;;;4.23;;
10013;SDS011;45684;48.358;10.746;2022-11-20T00:52:55;6.00;;;4.33;;
10013;SDS011;45684;48.358;10.746;2022-11-20T00:55:23;5.60;;;4.43;;
10013;SDS011;45684;48.358;10.746;2022-11-20T00:57:51;4.67;;;4.10;;
10013;SDS011;45684;48.358;10.746;2022-11-20T01:00:19;4.93;;;4.43;;
10013;SDS011;45684;48.358;10.746;2022-11-20T01:02:46;5.23;;;4.73;;
10013;SDS011;45684;48.358;10.746;2022-11-20T01:05:16;4.80;;;4.40;;
10013;SDS011;45684;48.358;10.746;2022-11-20T01:07:43;5.30;;;4.67;;
10013;SDS011;45684;48.358;10.746;2022-11-20T01:10:11;6.00;;;4.40;;
10013;SDS011;45684;48.358;10.746;2022-11-20T01:12:39;4.77;;;4.30;;
10013;SDS011;45684;48.358;10.746;2022-11-20T01:15:07;4.63;;;4.13;;
10013;SDS011;45684;48.358;10.746;2022-11-20T01:17:35;4.83;;;4.33;;
10013;SDS011;45684;48.358;10.746;2022-11-20T01:20:03;5.03;;;4.63;;
10013;SDS011;45684;48.358;10.746;2022-11-20T01:22:33;4.87;;;4.47;;
10013;SDS011;45684;48.358;10.746;2022-11-20T01:25:00;4.77;;;4.37;;
10013;SDS011;45684;48.358;10.746;2022-11-20T01:27:28;4.87;;;4.43;;
10013;SDS011;45684;48.358;10.746;2022-11-20T01:29:56;5.00;;;4.60;;
10013;SDS011;45684;48.358;10.746;2022-11-20T01:32:26;4.83;;;4.37;;
10013;SDS011;45684;48.358;10.746;2022-11-20T01:34:54;4.80;;;4.40;;
10013;SDS011;45684;48.358;10.746;2022-11-20T01:37:22;5.20;;;4.70;;
10013;SDS011;45684;48.358;10.746;2022-11-20T01:39:51;5.00;;;4.60;;
10013;SDS011;45684;48.358;10.746;2022-11-20T01:42:19;5.00;;;4.50;;
10013;SDS011;45684;48.358;10.746;2022-11-20T01:48:05;5.00;;;4.60;;
10013;SDS011;45684;48.358;10.746;2022-11-20T01:50:33;5.27;;;4.70;;
10013;SDS011;45684;48.358;10.746;2022-11-20T01:53:01;5.20;;;4.70;;
10013;SDS011;45684;48.358;10.746;2022-11-20T01:55:34;5.73;;;5.23;;
10013;SDS011;45684;48.358;10.746;2022-11-20T01:58:06;6.00;;;4.83;;
10013;SDS011;45684;48.358;10.746;2022-11-20T02:00:34;5.13;;;4.63;;
10013;SDS011;45684;48.358;10.746;2022-11-20T02:03:03;4.53;;;4.13;;
10013;SDS011;45684;48.358;10.746;2022-11-20T02:05:35;6.07;;;4.73;;
10013;SDS011;45684;48.358;10.746;2022-11-20T02:08:06;5.37;;;4.63;;
10013;SDS011;45684;48.358;10.746;2022-11-20T02:10:35;5.07;;;4.67;;
10013;SDS011;45684;48.358;10.746;2022-11-20T02:13:03;4.53;;;4.23;;
10013;SDS011;45684;48.358;10.746;2022-11-20T02:15:49;5.30;;;4.80;;
10013;SDS011;45684;48.358;10.746;2022-11-20T02:18:17;4.93;;;4.53;;
10013;SDS011;45684;48.358;10.746;2022-11-20T02:20:48;4.90;;;4.50;;
10013;SDS011;45684;48.358;10.746;2022-11-20T02:23:20;5.00;;;4.50;;
10013;SDS011;45684;48.358;10.746;2022-11-20T02:25:55;4.97;;;4.53;;
10013;SDS011;45684;48.358;10.746;2022-11-20T02:28:25;4.40;;;4.00;;
10013;SDS011;45684;48.358;10.746;2022-11-20T02:30:54;4.70;;;4.13;;
10013;SDS011;45684;48.358;10.746;2022-11-20T02:33:21;4.73;;;4.27;;
10013;SDS011;45684;48.358;10.746;2022-11-20T02:35:49;4.90;;;4.40;;
10013;SDS011;45684;48.358;10.746;2022-11-20T02:38:17;4.80;;;4.40;;
10013;SDS011;45684;48.358;10.746;2022-11-20T02:40:45;5.23;;;4.73;;
10013;SDS011;45684;48.358;10.746;2022-11-20T02:43:20;4.90;;;4.50;;
10013;SDS011;45684;48.358;10.746;2022-11-20T02:45:49;4.57;;;4.17;;
10013;SDS011;45684;48.358;10.746;2022-11-20T02:48:17;4.80;;;4.40;;
10013;SDS011;45684;48.358;10.746;2022-11-20T02:50:44;4.83;;;4.40;;
10013;SDS011;45684;48.358;10.746;2022-11-20T02:53:12;4.63;;;4.23;;
10013;SDS011;45684;48.358;10.746;2022-11-20T02:55:40;5.13;;;4.63;;
10013;SDS011;45684;48.358;10.746;2022-11-20T02:58:08;4.80;;;4.37;;
10013;SDS011;45684;48.358;10.746;2022-11-20T03:00:37;4.80;;;4.40;;
10013;SDS011;45684;48.358;10.746;2022-11-20T03:03:05;5.20;;;4.70;;
10013;SDS011;45684;48.358;10.746;2022-11-20T03:05:33;4.87;;;4.37;;
10013;SDS011;45684;48.358;10.746;2022-11-20T03:08:00;4.40;;;4.00;;
10013;SDS011;45684;48.358;10.746;2022-11-20T03:10:28;4.63;;;4.23;;
10013;SDS011;45684;48.358;10.746;2022-11-20T03:12:56;4.63;;;4.23;;
10013;SDS011;45684;48.358;10.746;2022-11-20T03:15:24;4.80;;;4.40;;
10013;SDS011;45684;48.358;10.746;2022-11-20T03:17:54;4.83;;;4.43;;
10013;SDS011;45684;48.358;10.746;2022-11-20T03:20:22;4.80;;;4.40;;
10013;SDS011;45684;48.358;10.746;2022-11-20T03:22:50;5.17;;;4.77;;
10013;SDS011;45684;48.358;10.746;2022-11-20T03:25:21;4.90;;;4.40;;
10013;SDS011;45684;48.358;10.746;2022-11-20T03:27:49;4.57;;;4.17;;
10013;SDS011;45684;48.358;10.746;2022-11-20T03:30:17;4.20;;;3.77;;
10013;SDS011;45684;48.358;10.746;2022-11-20T03:32:45;4.70;;;4.30;;
10013;SDS011;45684;48.358;10.746;2022-11-20T03:35:14;4.80;;;4.37;;
10013;SDS011;45684;48.358;10.746;2022-11-20T03:37:42;4.20;;;3.87;;
10013;SDS011;45684;48.358;10.746;2022-11-20T03:40:12;4.60;;;3.97;;
10013;SDS011;45684;48.358;10.746;2022-11-20T03:42:40;5.17;;;4.67;;
10013;SDS011;45684;48.358;10.746;2022-11-20T03:45:13;4.50;;;4.10;;
10013;SDS011;45684;48.358;10.746;2022-11-20T03:47:42;4.40;;;4.00;;
10013;SDS011;45684;48.358;10.746;2022-11-20T03:50:11;4.83;;;4.40;;
10013;SDS011;45684;48.358;10.746;2022-11-20T03:52:41;5.10;;;4.67;;
10013;SDS011;45684;48.358;10.746;2022-11-20T03:55:09;4.33;;;3.90;;
10013;SDS011;45684;48.358;10.746;2022-11-20T03:57:37;4.50;;;4.10;;
10013;SDS011;45684;48.358;10.746;2022-11-20T04:00:05;17.20;;;15.50;;
10013;SDS011;45684;48.358;10.746;2022-11-20T04:02:34;5.70;;;5.20;;
10013;SDS011;45684;48.358;10.746;2022-11-20T04:05:02;5.63;;;4.57;;
10013;SDS011;45684;48.358;10.746;2022-11-20T04:07:33;37.57;;;21.67;;
10013;SDS011;45684;48.358;10.746;2022-11-20T04:10:01;70.20;;;35.63;;
10013;SDS011;45684;48.358;10.746;2022-11-20T04:12:31;38.73;;;19.83;;
10013;SDS011;45684;48.358;10.746;2022-11-20T04:14:59;13.30;;;9.90;;
10013;SDS011;45684;48.358;10.746;2022-11-20T04:17:27;48.43;;;28.43;;
10013;SDS011;45684;48.358;10.746;2022-11-20T04:19:55;55.27;;;30.33;;
10013;SDS011;45684;48.358;10.746;2022-11-20T04:22:22;100.80;;;43.40;;
10013;SDS011;45684;48.358;10.746;2022-11-20T04:24:52;78.53;;;36.57;;
10013;SDS011;45684;48.358;10.746;2022-11-20T04:27:20;61.20;;;31.03;;
10013;SDS011;45684;48.358;10.746;2022-11-20T04:29:48;67.77;;;33.57;;
10013;SDS011;45684;48.358;10.746;2022-11-20T04:32:15;167.90;;;64.33;;
10013;SDS011;45684;48.358;10.746;2022-11-20T04:34:43;71.83;;;30.03;;
10013;SDS011;45684;48.358;10.746;2022-11-20T04:37:11;17.67;;;12.70;;
10013;SDS011;45684;48.358;10.746;2022-11-20T04:39:39;47.70;;;24.60;;
10013;SDS011;45684;48.358;10.746;2022-11-20T04:42:09;63.30;;;28.77;;
10013;SDS011;45684;48.358;10.746;2022-11-20T04:44:54;31.23;;;21.17;;
10013;SDS011;45684;48.358;10.746;2022-11-20T04:47:22;17.53;;;12.83;;
10013;SDS011;45684;48.358;10.746;2022-11-20T04:49:50;117.47;;;62.47;;
10013;SDS011;45684;48.358;10.746;2022-11-20T04:52:18;22.77;;;12.77;;
10013;SDS011;45684;48.358;10.746;2022-11-20T04:54:46;11.60;;;7.80;;
10013;SDS011;45684;48.358;10.746;2022-11-20T04:57:15;4.87;;;4.27;;
10013;SDS011;45684;48.358;10.746;2022-11-20T04:59:43;4.73;;;4.33;;
10013;SDS011;45684;48.358;10.746;2022-11-20T05:02:11;4.77;;;4.30;;
10013;SDS011;45684;48.358;10.746;2022-11-20T05:04:39;5.33;;;4.27;;
10013;SDS011;45684;48.358;10.746;2022-11-20T05:07:07;4.17;;;3.77;;
10013;SDS011;45684;48.358;10.746;2022-11-20T05:09:34;4.30;;;3.90;;
10013;SDS011;45684;48.358;10.746;2022-11-20T05:12:02;4.37;;;4.00;;
10013;SDS011;45684;48.358;10.746;2022-11-20T05:14:32;5.03;;;3.83;;
10013;SDS011;45684;48.358;10.746;2022-11-20T05:16:59;4.10;;;3.80;;
10013;SDS011;45684;48.358;10.746;2022-11-20T05:19:27;5.43;;;4.70;;
10013;SDS011;45684;48.358;10.746;2022-11-20T05:21:55;4.50;;;4.03;;
10013;SDS011;45684;48.358;10.746;2022-11-20T05:24:23;4.30;;;3.77;;
10013;SDS011;45684;48.358;10.746;2022-11-20T05:26:50;4.03;;;3.73;;
10013;SDS011;45684;48.358;10.746;2022-11-20T05:29:18;4.90;;;3.90;;
10013;SDS011;45684;48.358;10.746;2022-11-20T05:31:48;4.43;;;3.50;;
10013;SDS011;45684;48.358;10.746;2022-11-20T05:34:15;3.80;;;3.47;;
10013;SDS011;45684;48.358;10.746;2022-11-20T05:36:43;3.97;;;3.67;;
10013;SDS011;45684;48.358;10.746;2022-11-20T05:39:11;4.13;;;3.83;;
10013;SDS011;45684;48.358;10.746;2022-11-20T05:41:39;3.80;;;3.50;;
10013;SDS011;45684;48.358;10.746;2022-11-20T05:44:06;4.00;;;3.70;;
10013;SDS011;45684;48.358;10.746;2022-11-20T05:46:34;4.73;;;3.60;;
10013;SDS011;45684;48.358;10.746;2022-11-20T05:49:03;4.20;;;3.40;;
10013;SDS011;45684;48.358;10.746;2022-11-20T05:51:31;3.93;;;3.60;;
10013;SDS011;45684;48.358;10.746;2022-11-20T05:53:59;3.53;;;3.23;;
10013;SDS011;45684;48.358;10.746;2022-11-20T05:56:26;3.87;;;3.57;;
10013;SDS011;45684;48.358;10.746;2022-11-20T05:58:55;3.63;;;3.33;;
10013;SDS011;45684;48.358;10.746;2022-11-20T06:01:24;3.40;;;3.10;;
10013;SDS011;45684;48.358;10.746;2022-11-20T06:03:53;4.03;;;3.67;;
10013;SDS011;45684;48.358;10.746;2022-11-20T06:06:23;3.53;;;3.23;;
10013;SDS011;45684;48.358;10.746;2022-11-20T06:08:51;4.30;;;3.50;;
10013;SDS011;45684;48.358;10.746;2022-11-20T06:11:19;3.43;;;3.13;;
10013;SDS011;45684;48.358;10.746;2022-11-20T06:13:47;3.70;;;3.30;;
10013;SDS011;45684;48.358;10.746;2022-11-20T06:16:16;3.87;;;3.00;;
10013;SDS011;45684;48.358;10.746;2022-11-20T06:18:45;3.70;;;3.20;;
10013;SDS011;45684;48.358;10.746;2022-11-20T06:21:14;4.17;;;3.60;;
10013;SDS011;45684;48.358;10.746;2022-11-20T06:23:45;3.73;;;3.43;;
10013;SDS011;45684;48.358;10.746;2022-11-20T06:26:14;3.67;;;3.37;;
10013;SDS011;45684;48.358;10.746;2022-11-20T06:28:43;3.80;;;3.43;;
10013;SDS011;45684;48.358;10.746;2022-11-20T06:31:12;4.03;;;3.30;;
10013;SDS011;45684;48.358;10.746;2022-11-20T06:33:40;4.23;;;3.80;;
10013;SDS011;45684;48.358;10.746;2022-11-20T06:36:09;3.70;;;3.40;;
10013;SDS011;45684;48.358;10.746;2022-11-20T06:38:38;3.97;;;3.57;;
10013;SDS011;45684;48.358;10.746;2022-11-20T06:41:10;26.70;;;22.40;;
10013;SDS011;45684;48.358;10.746;2022-11-20T06:43:39;6.30;;;5.80;;
10013;SDS011;45684;48.358;10.746;2022-11-20T06:46:08;3.67;;;3.37;;
10013;SDS011;45684;48.358;10.746;2022-11-20T06:48:37;4.10;;;3.70;;
10013;SDS011;45684;48.358;10.746;2022-11-20T06:51:05;6.67;;;4.93;;
10013;SDS011;45684;48.358;10.746;2022-11-20T06:53:34;3.93;;;3.63;;
10013;SDS011;45684;48.358;10.746;2022-11-20T06:56:02;4.77;;;4.30;;
10013;SDS011;45684;48.358;10.746;2022-11-20T06:58:32;4.90;;;4.50;;
10013;SDS011;45684;48.358;10.746;2022-11-20T07:01:01;6.30;;;5.70;;
10013;SDS011;45684;48.358;10.746;2022-11-20T07:03:32;7.93;;;6.53;;
10013;SDS011;45684;48.358;10.746;2022-11-20T07:06:00;6.03;;;4.77;;
10013;SDS011;45684;48.358;10.746;2022-11-20T07:08:28;5.70;;;4.47;;
10013;SDS011;45684;48.358;10.746;2022-11-20T07:10:57;4.70;;;4.30;;
10013;SDS011;45684;48.358;10.746;2022-11-20T07:13:26;4.03;;;3.73;;
10013;SDS011;45684;48.358;10.746;2022-11-20T07:15:58;4.70;;;4.30;;
10013;SDS011;45684;48.358;10.746;2022-11-20T07:18:27;6.97;;;6.37;;
10013;SDS011;45684;48.358;10.746;2022-11-20T07:20:55;5.33;;;4.90;;
10013;SDS011;45684;48.358;10.746;2022-11-20T07:23:23;4.80;;;4.40;;
10013;SDS011;45684;48.358;10.746;2022-11-20T07:25:50;4.63;;;4.17;;
10013;SDS011;45684;48.358;10.746;2022-11-20T07:28:18;4.80;;;4.40;;
10013;SDS011;45684;48.358;10.746;2022-11-20T07:30:49;6.50;;;5.90;;
10013;SDS011;45684;48.358;10.746;2022-11-20T07:33:19;7.00;;;6.23;;
10013;SDS011;45684;48.358;10.746;2022-11-20T07:35:47;4.70;;;3.90;;
10013;SDS011;45684;48.358;10.746;2022-11-20T07:38:15;4.23;;;3.87;;
10013;SDS011;45684;48.358;10.746;2022-11-20T07:40:42;3.87;;;3.57;;
10013;SDS011;45684;48.358;10.746;2022-11-20T07:43:10;5.20;;;4.50;;
10013;SDS011;45684;48.358;10.746;2022-11-20T07:45:38;4.30;;;4.00;;
10013;SDS011;45684;48.358;10.746;2022-11-20T07:48:06;4.27;;;3.87;;
10013;SDS011;45684;48.358;10.746;2022-11-20T07:50:35;5.73;;;5.17;;
10013;SDS011;45684;48.358;10.746;2022-11-20T07:53:03;6.80;;;5.50;;
10013;SDS011;45684;48.358;10.746;2022-11-20T07:55:31;5.30;;;4.80;;
10013;SDS011;45684;48.358;10.746;2022-11-20T07:57:59;5.33;;;4.83;;
10013;SDS011;45684;48.358;10.746;2022-11-20T08:00:27;4.17;;;3.87;;
10013;SDS011;45684;48.358;10.746;2022-11-20T08:02:55;4.03;;;3.73;;
10013;SDS011;45684;48.358;10.746;2022-11-20T08:05:23;6.13;;;5.13;;
10013;SDS011;45684;48.358;10.746;2022-11-20T08:07:52;4.57;;;4.17;;
10013;SDS011;45684;48.358;10.746;2022-11-20T08:10:20;5.67;;;4.37;;
10013;SDS011;45684;48.358;10.746;2022-11-20T08:12:48;5.13;;;4.57;;
10013;SDS011;45684;48.358;10.746;2022-11-20T08:15:34;5.00;;;4.60;;
10013;SDS011;45684;48.358;10.746;2022-11-20T08:18:04;4.63;;;4.23;;
10013;SDS011;45684;48.358;10.746;2022-11-20T08:20:53;5.00;;;4.50;;
10013;SDS011;45684;48.358;10.746;2022-11-20T08:23:22;4.83;;;4.40;;
10013;SDS011;45684;48.358;10.746;2022-11-20T08:25:50;6.17;;;5.10;;
10013;SDS011;45684;48.358;10.746;2022-11-20T08:28:18;6.23;;;5.60;;
10013;SDS011;45684;48.358;10.746;2022-11-20T08:30:48;4.90;;;4.10;;
10013;SDS011;45684;48.358;10.746;2022-11-20T08:33:16;4.50;;;4.10;;
10013;SDS011;45684;48.358;10.746;2022-11-20T08:35:45;4.73;;;4.17;;
10013;SDS011;45684;48.358;10.746;2022-11-20T08:38:13;4.80;;;4.40;;
10013;SDS011;45684;48.358;10.746;2022-11-20T08:40:42;3.93;;;3.63;;
10013;SDS011;45684;48.358;10.746;2022-11-20T08:43:31;4.90;;;4.43;;
10013;SDS011;45684;48.358;10.746;2022-11-20T08:45:59;5.70;;;5.20;;
10013;SDS011;45684;48.358;10.746;2022-11-20T08:48:27;5.77;;;4.37;;
10013;SDS011;45684;48.358;10.746;2022-11-20T08:50:57;4.00;;;3.70;;
10013;SDS011;45684;48.358;10.746;2022-11-20T08:53:25;9.70;;;4.43;;
10013;SDS011;45684;48.358;10.746;2022-11-20T08:55:55;4.47;;;4.07;;
10013;SDS011;45684;48.358;10.746;2022-11-20T08:58:24;5.13;;;4.03;;
10013;SDS011;45684;48.358;10.746;2022-11-20T09:00:52;4.80;;;4.17;;
10013;SDS011;45684;48.358;10.746;2022-11-20T09:03:20;4.70;;;4.20;;
10013;SDS011;45684;48.358;10.746;2022-11-20T09:05:48;3.67;;;3.37;;
10013;SDS011;45684;48.358;10.746;2022-11-20T09:08:16;3.77;;;3.47;;
10013;SDS011;45684;48.358;10.746;2022-11-20T09:10:44;4.17;;;3.80;;
10013;SDS011;45684;48.358;10.746;2022-11-20T09:13:14;4.67;;;3.97;;
10013;SDS011;45684;48.358;10.746;2022-11-20T09:15:42;3.93;;;3.53;;
10013;SDS011;45684;48.358;10.746;2022-11-20T09:18:09;4.17;;;3.77;;
10013;SDS011;45684;48.358;10.746;2022-11-20T09:20:37;3.50;;;3.20;;
10013;SDS011;45684;48.358;10.746;2022-11-20T09:23:05;3.20;;;3.00;;
10013;SDS011;45684;48.358;10.746;2022-11-20T09:25:33;3.50;;;3.30;;
10013;SDS011;45684;48.358;10.746;2022-11-20T09:28:00;3.23;;;3.03;;
10013;SDS011;45684;48.358;10.746;2022-11-20T09:30:30;2.80;;;2.60;;
10013;SDS011;45684;48.358;10.746;2022-11-20T09:32:58;4.00;;;3.60;;
10013;SDS011;45684;48.358;10.746;2022-11-20T09:35:25;3.27;;;2.80;;
10013;SDS011;45684;48.358;10.746;2022-11-20T09:37:53;4.17;;;2.80;;
10013;SDS011;45684;48.358;10.746;2022-11-20T09:40:22;2.70;;;2.50;;
10013;SDS011;45684;48.358;10.746;2022-11-20T09:42:53;2.67;;;2.47;;
10013;SDS011;45684;48.358;10.746;2022-11-20T09:45:28;2.80;;;2.60;;
10013;SDS011;45684;48.358;10.746;2022-11-20T09:48:16;2.90;;;2.70;;
10013;SDS011;45684;48.358;10.746;2022-11-20T09:50:54;2.73;;;2.53;;
10013;SDS011;45684;48.358;10.746;2022-11-20T09:53:28;2.87;;;2.63;;
10013;SDS011;45684;48.358;10.746;2022-11-20T09:56:03;2.70;;;2.50;;
10013;SDS011;45684;48.358;10.746;2022-11-20T09:58:33;2.77;;;2.53;;
10013;SDS011;45684;48.358;10.746;2022-11-20T10:01:09;2.67;;;2.47;;
10013;SDS011;45684;48.358;10.746;2022-11-20T10:03:50;3.00;;;2.70;;
10013;SDS011;45684;48.358;10.746;2022-11-20T10:06:24;2.60;;;2.50;;
10013;SDS011;45684;48.358;10.746;2022-11-20T10:09:03;2.57;;;2.37;;
10013;SDS011;45684;48.358;10.746;2022-11-20T10:11:44;2.73;;;2.53;;
10013;SDS011;45684;48.358;10.746;2022-11-20T10:14:18;2.50;;;2.30;;
10013;SDS011;45684;48.358;10.746;2022-11-20T10:16:56;3.10;;;2.80;;
10013;SDS011;45684;48.358;10.746;2022-11-20T10:22:25;2.60;;;2.50;;
10013;SDS011;45684;48.358;10.746;2022-11-20T10:25:10;2.80;;;2.60;;
10013;SDS011;45684;48.358;10.746;2022-11-20T10:28:01;2.73;;;2.43;;
10013;SDS011;45684;48.358;10.746;2022-11-20T10:30:39;2.40;;;2.20;;
10013;SDS011;45684;48.358;10.746;2022-11-20T10:33:13;2.77;;;2.40;;
10013;SDS011;45684;48.358;10.746;2022-11-20T10:35:44;3.40;;;2.60;;
10013;SDS011;45684;48.358;10.746;2022-11-20T10:38:19;2.53;;;2.33;;
10013;SDS011;45684;48.358;10.746;2022-11-20T10:40:51;3.17;;;2.40;;
10013;SDS011;45684;48.358;10.746;2022-11-20T10:43:43;2.40;;;1.80;;
10013;SDS011;45684;48.358;10.746;2022-11-20T10:46:13;2.07;;;1.90;;
10013;SDS011;45684;48.358;10.746;2022-11-20T10:48:45;1.90;;;1.80;;
10013;SDS011;45684;48.358;10.746;2022-11-20T10:51:17;2.00;;;1.90;;
10013;SDS011;45684;48.358;10.746;2022-11-20T10:53:56;1.97;;;1.83;;
10013;SDS011;45684;48.358;10.746;2022-11-20T10:56:31;2.00;;;1.90;;
10013;SDS011;45684;48.358;10.746;2022-11-20T11:02:13;1.80;;;1.70;;
10013;SDS011;45684;48.358;10.746;2022-11-20T11:04:45;2.07;;;1.83;;
10013;SDS011;45684;48.358;10.746;2022-11-20T11:07:15;2.20;;;1.67;;
10013;SDS011;45684;48.358;10.746;2022-11-20T11:09:47;1.80;;;1.70;;
10013;SDS011;45684;48.358;10.746;2022-11-20T11:12:16;1.80;;;1.70;;
10013;SDS011;45684;48.358;10.746;2022-11-20T11:14:45;1.70;;;1.60;;
10013;SDS011;45684;48.358;10.746;2022-11-20T11:17:21;2.07;;;1.97;;
10013;SDS011;45684;48.358;10.746;2022-11-20T11:19:58;2.80;;;1.90;;
10013;SDS011;45684;48.358;10.746;2022-11-20T11:22:28;36.97;;;22.03;;
10013;SDS011;45684;48.358;10.746;2022-11-20T11:24:57;5.27;;;4.10;;
10013;SDS011;45684;48.358;10.746;2022-11-20T11:27:25;15.90;;;13.00;;
10013;SDS011;45684;48.358;10.746;2022-11-20T11:30:01;22.57;;;17.87;;
10013;SDS011;45684;48.358;10.746;2022-11-20T11:32:40;16.23;;;12.20;;
10013;SDS011;45684;48.358;10.746;2022-11-20T11:35:20;4.10;;;3.70;;
10013;SDS011;45684;48.358;10.746;2022-11-20T11:37:50;15.57;;;13.33;;
10013;SDS011;45684;48.358;10.746;2022-11-20T11:40:20;15.17;;;11.60;;
10013;SDS011;45684;48.358;10.746;2022-11-20T11:42:52;13.37;;;9.10;;
10013;SDS011;45684;48.358;10.746;2022-11-20T11:45:24;11.67;;;8.73;;
10013;SDS011;45684;48.358;10.746;2022-11-20T11:47:51;14.53;;;9.20;;
10013;SDS011;45684;48.358;10.746;2022-11-20T11:50:23;11.53;;;7.80;;
10013;SDS011;45684;48.358;10.746;2022-11-20T11:52:59;77.40;;;43.27;;
10013;SDS011;45684;48.358;10.746;2022-11-20T11:55:36;13.30;;;8.53;;
10013;SDS011;45684;48.358;10.746;2022-11-20T11:58:22;43.10;;;24.13;;
10013;SDS011;45684;48.358;10.746;2022-11-20T12:01:01;5.93;;;4.50;;
10013;SDS011;45684;48.358;10.746;2022-11-20T12:03:38;27.67;;;14.30;;
10013;SDS011;45684;48.358;10.746;2022-11-20T12:06:10;30.27;;;16.67;;
10013;SDS011;45684;48.358;10.746;2022-11-20T12:08:42;9.63;;;6.70;;
10013;SDS011;45684;48.358;10.746;2022-11-20T12:11:16;47.53;;;26.97;;
10013;SDS011;45684;48.358;10.746;2022-11-20T12:13:48;46.33;;;28.97;;
10013;SDS011;45684;48.358;10.746;2022-11-20T12:16:21;34.63;;;20.93;;
10013;SDS011;45684;48.358;10.746;2022-11-20T12:18:49;21.10;;;14.97;;
10013;SDS011;45684;48.358;10.746;2022-11-20T12:21:21;27.87;;;21.87;;
10013;SDS011;45684;48.358;10.746;2022-11-20T12:24:02;3.63;;;3.13;;
10013;SDS011;45684;48.358;10.746;2022-11-20T12:26:45;19.03;;;14.40;;
10013;SDS011;45684;48.358;10.746;2022-11-20T12:29:26;70.80;;;46.97;;
10013;SDS011;45684;48.358;10.746;2022-11-20T12:32:06;21.50;;;16.27;;
10013;SDS011;45684;48.358;10.746;2022-11-20T12:35:00;11.27;;;8.80;;
10013;SDS011;45684;48.358;10.746;2022-11-20T12:37:41;13.00;;;10.73;;
10013;SDS011;45684;48.358;10.746;2022-11-20T12:40:18;11.47;;;9.27;;
10013;SDS011;45684;48.358;10.746;2022-11-20T12:42:58;11.43;;;9.43;;
10013;SDS011;45684;48.358;10.746;2022-11-20T12:45:59;7.03;;;6.30;;
10013;SDS011;45684;48.358;10.746;2022-11-20T12:48:38;24.77;;;18.13;;
10013;SDS011;45684;48.358;10.746;2022-11-20T12:51:18;28.43;;;18.43;;
10013;SDS011;45684;48.358;10.746;2022-11-20T12:54:03;13.93;;;11.23;;
10013;SDS011;45684;48.358;10.746;2022-11-20T12:56:47;4.53;;;4.13;;
10013;SDS011;45684;48.358;10.746;2022-11-20T12:59:33;11.50;;;10.27;;
10013;SDS011;45684;48.358;10.746;2022-11-20T13:02:19;7.93;;;7.13;;
10013;SDS011;45684;48.358;10.746;2022-11-20T13:04:58;7.70;;;5.77;;
10013;SDS011;45684;48.358;10.746;2022-11-20T13:07:46;34.17;;;21.77;;
10013;SDS011;45684;48.358;10.746;2022-11-20T13:10:18;13.93;;;8.93;;
10013;SDS011;45684;48.358;10.746;2022-11-20T13:12:51;5.73;;;5.17;;
10013;SDS011;45684;48.358;10.746;2022-11-20T13:15:29;4.40;;;4.00;;
10013;SDS011;45684;48.358;10.746;2022-11-20T13:18:08;3.80;;;3.50;;
10013;SDS011;45684;48.358;10.746;2022-11-20T13:20:40;2.80;;;2.60;;
10013;SDS011;45684;48.358;10.746;2022-11-20T13:23:10;2.60;;;2.40;;
10013;SDS011;45684;48.358;10.746;2022-11-20T13:25:39;2.67;;;2.47;;
10013;SDS011;45684;48.358;10.746;2022-11-20T13:30:55;4.97;;;4.13;;
10013;SDS011;45684;48.358;10.746;2022-11-20T13:33:28;4.20;;;3.90;;
10013;SDS011;45684;48.358;10.746;2022-11-20T13:36:00;3.97;;;3.67;;
10013;SDS011;45684;48.358;10.746;2022-11-20T13:38:39;4.17;;;3.50;;
10013;SDS011;45684;48.358;10.746;2022-11-20T13:41:22;5.90;;;5.10;;
10013;SDS011;45684;48.358;10.746;2022-11-20T13:44:05;5.57;;;5.07;;
10013;SDS011;45684;48.358;10.746;2022-11-20T13:46:39;8.70;;;7.80;;
10013;SDS011;45684;48.358;10.746;2022-11-20T13:49:10;7.23;;;6.53;;
10013;SDS011;45684;48.358;10.746;2022-11-20T13:51:47;10.60;;;9.47;;
10013;SDS011;45684;48.358;10.746;2022-11-20T13:57:27;6.30;;;5.70;;
10013;SDS011;45684;48.358;10.746;2022-11-20T14:00:10;11.40;;;10.20;;
10013;SDS011;45684;48.358;10.746;2022-11-20T14:02:40;10.50;;;8.60;;
10013;SDS011;45684;48.358;10.746;2022-11-20T14:05:13;3.93;;;3.53;;
10013;SDS011;45684;48.358;10.746;2022-11-20T14:07:46;5.20;;;4.70;;
10013;SDS011;45684;48.358;10.746;2022-11-20T14:10:23;7.23;;;6.53;;
10013;SDS011;45684;48.358;10.746;2022-11-20T14:13:09;7.60;;;6.23;;
10013;SDS011;45684;48.358;10.746;2022-11-20T14:15:37;6.10;;;5.23;;
10013;SDS011;45684;48.358;10.746;2022-11-20T14:18:11;7.67;;;7.07;;
10013;SDS011;45684;48.358;10.746;2022-11-20T14:20:41;7.43;;;6.83;;
10013;SDS011;45684;48.358;10.746;2022-11-20T14:23:22;8.63;;;7.60;;
10013;SDS011;45684;48.358;10.746;2022-11-20T14:25:55;9.93;;;8.93;;
10013;SDS011;45684;48.358;10.746;2022-11-20T14:28:26;13.30;;;10.63;;
10013;SDS011;45684;48.358;10.746;2022-11-20T14:30:56;18.20;;;14.13;;
10013;SDS011;45684;48.358;10.746;2022-11-20T14:33:25;12.73;;;10.03;;
10013;SDS011;45684;48.358;10.746;2022-11-20T14:35:54;8.80;;;7.37;;
10013;SDS011;45684;48.358;10.746;2022-11-20T14:38:24;16.53;;;11.87;;
10013;SDS011;45684;48.358;10.746;2022-11-20T14:41:04;4.97;;;4.27;;
10013;SDS011;45684;48.358;10.746;2022-11-20T14:43:35;2.63;;;2.40;;
10013;SDS011;45684;48.358;10.746;2022-11-20T14:46:04;3.80;;;3.50;;
10013;SDS011;45684;48.358;10.746;2022-11-20T14:48:37;2.77;;;2.50;;
10013;SDS011;45684;48.358;10.746;2022-11-20T14:51:10;5.83;;;5.23;;
10013;SDS011;45684;48.358;10.746;2022-11-20T14:53:39;4.10;;;3.73;;
10013;SDS011;45684;48.358;10.746;2022-11-20T14:56:07;3.87;;;3.10;;
10013;SDS011;45684;48.358;10.746;2022-11-20T14:58:37;5.73;;;4.80;;
10013;SDS011;45684;48.358;10.746;2022-11-20T15:01:06;8.63;;;6.50;;
10013;SDS011;45684;48.358;10.746;2022-11-20T15:03:42;3.20;;;3.00;;
10013;SDS011;45684;48.358;10.746;2022-11-20T15:06:10;4.43;;;3.97;;
10013;SDS011;45684;48.358;10.746;2022-11-20T15:08:50;3.40;;;3.10;;